Fort Sheridan, Illinois
Current Conditions -  °F | °C
As of 12:52 PM on Friday 24 Oct 2014 (Local Time) from KPWK Reporting Station
Clear Clear  
Wind Chill: 64°   Ceiling: Unl
Heat Index: 64°   Visibility: 10mi
Dew Point: 49°   Wind: 6mph
Humidity: 58%   Direction: NA
Pressure: 30.03"   Gusts: NA
Location:  42.22°N, 87.81°W
Report Text: KPWK 241752Z VRB05KT 10SM CLR 18/09 A3003 RMK AO2 SLP167 T01780094 10178 20111 58017
Loading
Personal Weather Stations






























Interactive Weather Map
Tropical Storm Tracking
New forecast layout! Learn more

10-Day Weather Forecast

Advertisements
Track Severe Weather on mobile